createdAt,value
2019-03-01T00:01:57.146Z,56.33
2019-03-01T00:04:43.825Z,51.30
2019-03-01T00:07:49.557Z,57.87
2019-03-01T00:10:57.120Z,61.73
2019-03-01T00:13:45.730Z,56.20
2019-03-01T00:16:25.043Z,55.30
2019-03-01T00:19:30.982Z,58.23
2019-03-01T00:22:17.676Z,54.47
2019-03-01T00:24:51.953Z,58.70
2019-03-01T00:27:39.962Z,56.50
2019-03-01T00:30:20.342Z,52.23
2019-03-01T00:33:08.480Z,57.43
2019-03-01T00:35:56.776Z,62.30
2019-03-01T00:38:37.473Z,65.20
2019-03-01T00:41:17.956Z,59.17
2019-03-01T00:44:04.920Z,59.17
2019-03-01T00:46:33.489Z,59.97
2019-03-01T00:49:02.091Z,55.83
2019-03-01T00:51:32.602Z,48.67
2019-03-01T00:54:00.906Z,45.87
2019-03-01T00:56:29.867Z,54.27
2019-03-01T00:58:58.825Z,46.33
2019-03-01T01:01:46.788Z,38.63
2019-03-01T01:04:15.458Z,43.53
2019-03-01T01:06:45.517Z,42.37
2019-03-01T01:09:15.803Z,35.80
2019-03-01T01:11:50.647Z,38.87
2019-03-01T01:14:19.334Z,37.53
2019-03-01T01:16:48.190Z,39.13
2019-03-01T01:19:17.064Z,35.47
2019-03-01T01:21:45.616Z,32.47
2019-03-01T01:24:14.260Z,27.90
2019-03-01T01:26:42.984Z,38.33
2019-03-01T01:29:11.559Z,34.63
2019-03-01T01:31:40.128Z,29.37
2019-03-01T01:34:08.808Z,30.17
2019-03-01T01:36:37.514Z,26.67
2019-03-01T01:39:08.172Z,33.27
2019-03-01T01:41:36.854Z,33.30
2019-03-01T01:44:05.659Z,32.40
2019-03-01T01:46:35.836Z,33.10
2019-03-01T01:49:04.595Z,31.73
2019-03-01T01:51:33.227Z,30.53
2019-03-01T01:54:01.870Z,38.50
2019-03-01T01:56:30.496Z,31.70
2019-03-01T01:59:00.322Z,27.37
2019-03-01T02:01:28.913Z,36.57
2019-03-01T02:03:57.654Z,30.33
2019-03-01T02:06:27.841Z,36.77
2019-03-01T02:08:56.606Z,29.10
2019-03-01T02:11:26.909Z,27.27
2019-03-01T02:13:55.555Z,21.97
2019-03-01T02:16:24.349Z,23.03
2019-03-01T02:18:57.751Z,25.47
2019-03-01T02:21:24.075Z,22.57
2019-03-01T02:23:52.658Z,22.60
2019-03-01T02:26:21.324Z,22.33
2019-03-01T02:28:50.240Z,21.63
2019-03-01T02:31:18.954Z,23.40
2019-03-01T02:33:47.610Z,23.50
2019-03-01T02:36:16.314Z,21.33
2019-03-01T02:38:44.961Z,23.30
2019-03-01T02:41:13.598Z,21.50
2019-03-01T02:43:42.153Z,24.23
2019-03-01T02:46:10.715Z,24.77
2019-03-01T02:48:39.303Z,24.07
2019-03-01T02:51:08.149Z,19.80
2019-03-01T02:53:36.877Z,25.03
2019-03-01T02:56:05.516Z,33.10
2019-03-01T02:58:35.625Z,26.63
2019-03-01T03:01:04.390Z,28.77
2019-03-01T03:03:33.065Z,34.60
2019-03-01T03:06:03.332Z,30.93
2019-03-01T03:08:31.894Z,37.67
2019-03-01T03:11:00.555Z,32.67
2019-03-01T03:13:29.109Z,32.37
2019-03-01T03:15:57.814Z,30.77
2019-03-01T03:18:26.406Z,29.70
2019-03-01T03:20:55.214Z,28.67
2019-03-01T03:23:23.850Z,34.00
2019-03-01T03:25:52.588Z,34.53
2019-03-01T03:28:21.555Z,31.10
2019-03-01T03:30:50.236Z,35.10
2019-03-01T03:33:18.892Z,32.23
2019-03-01T03:35:47.533Z,38.37
2019-03-01T03:38:16.097Z,33.83
2019-03-01T03:40:44.747Z,35.73
2019-03-01T03:43:13.747Z,35.17
2019-03-01T03:45:42.285Z,36.13
2019-03-01T03:48:12.739Z,37.60
2019-03-01T03:50:41.300Z,32.60
2019-03-01T03:53:12.772Z,44.03
2019-03-01T03:55:41.506Z,37.10
2019-03-01T03:58:10.154Z,36.67
2019-03-01T04:00:38.960Z,39.70
2019-03-01T04:03:07.690Z,36.60
2019-03-01T04:05:36.319Z,36.90
2019-03-01T04:08:05.228Z,36.97
2019-03-01T04:10:34.834Z,37.67
2019-03-01T04:13:03.427Z,35.43
2019-03-01T04:15:32.190Z,31.67
2019-03-01T04:18:00.918Z,41.47
2019-03-01T04:20:29.626Z,40.30
2019-03-01T04:22:58.351Z,36.00
2019-03-01T04:25:26.991Z,36.90
2019-03-01T04:27:55.627Z,35.63
2019-03-01T04:30:24.256Z,40.43
2019-03-01T04:32:52.959Z,34.10
2019-03-01T04:35:22.071Z,39.80
2019-03-01T04:37:50.785Z,36.07
2019-03-01T04:40:19.806Z,31.83
2019-03-01T04:42:48.452Z,30.90
2019-03-01T04:45:18.040Z,31.47
2019-03-01T04:47:46.704Z,34.03
2019-03-01T04:50:15.433Z,38.40
2019-03-01T04:52:45.525Z,36.23
2019-03-01T04:55:24.265Z,33.27
2019-03-01T04:57:52.914Z,31.43
2019-03-01T05:00:25.380Z,31.80
2019-03-01T05:02:54.189Z,26.93
2019-03-01T05:05:22.996Z,27.23
2019-03-01T05:07:51.622Z,31.20
2019-03-01T05:10:20.275Z,34.17
2019-03-01T05:12:50.440Z,30.90
2019-03-01T05:15:21.140Z,32.00
2019-03-01T05:17:51.303Z,31.03
2019-03-01T05:20:20.010Z,30.77
2019-03-01T05:22:48.714Z,32.87
2019-03-01T05:25:18.799Z,37.67
2019-03-01T05:27:47.365Z,32.63
2019-03-01T05:30:17.659Z,36.20
2019-03-01T05:32:47.970Z,36.63
2019-03-01T05:35:17.363Z,36.07
2019-03-01T05:37:47.378Z,37.97
2019-03-01T05:40:23.280Z,34.53
2019-03-01T05:42:51.827Z,35.23
2019-03-01T05:45:31.496Z,38.23
2019-03-01T05:48:00.058Z,39.30
2019-03-01T05:50:36.066Z,39.47
2019-03-01T05:53:24.006Z,41.83
2019-03-01T05:55:53.103Z,44.17
2019-03-01T05:58:31.268Z,38.50
2019-03-01T06:01:05.684Z,40.53
2019-03-01T06:03:46.395Z,43.97
2019-03-01T06:06:24.184Z,36.37
2019-03-01T06:09:18.882Z,36.90
2019-03-01T06:11:56.429Z,41.43
2019-03-01T06:14:46.283Z,42.03
2019-03-01T06:17:37.468Z,35.97
2019-03-01T06:20:16.267Z,36.27
2019-03-01T06:22:47.896Z,39.93
2019-03-01T06:25:19.536Z,39.67
2019-03-01T06:28:09.127Z,31.80
2019-03-01T06:31:01.937Z,41.40
2019-03-01T06:34:08.714Z,35.50
2019-03-01T06:36:52.187Z,37.63
2019-03-01T06:40:00.303Z,36.07
2019-03-01T06:42:47.017Z,35.77
2019-03-01T06:45:49.130Z,32.77
2019-03-01T06:48:21.035Z,35.37
2019-03-01T06:50:51.378Z,30.93
2019-03-01T06:53:20.066Z,29.53
2019-03-01T06:55:48.777Z,32.40
2019-03-01T06:58:20.099Z,36.40
2019-03-01T07:00:50.673Z,36.40
2019-03-01T07:03:19.694Z,34.53
2019-03-01T07:05:48.399Z,35.77
2019-03-01T07:08:17.001Z,32.03
2019-03-01T07:10:45.636Z,29.27
2019-03-01T07:13:14.347Z,32.43
2019-03-01T07:15:42.939Z,27.73
2019-03-01T07:18:12.453Z,26.47
2019-03-01T07:20:41.031Z,27.97
2019-03-01T07:23:09.637Z,29.13
2019-03-01T07:25:38.275Z,28.20
2019-03-01T07:28:08.747Z,28.47
2019-03-01T07:30:40.608Z,22.57
2019-03-01T07:33:09.671Z,24.60
2019-03-01T07:35:38.219Z,25.80
2019-03-01T07:38:06.921Z,24.67
2019-03-01T07:40:35.488Z,26.37
2019-03-01T07:43:07.799Z,25.03
2019-03-01T07:45:36.705Z,27.93
2019-03-01T07:48:05.669Z,23.90
2019-03-01T07:50:56.623Z,25.17
2019-03-01T07:53:25.498Z,27.47
2019-03-01T07:55:54.276Z,26.73
2019-03-01T07:58:25.500Z,26.63
2019-03-01T08:00:54.744Z,26.77
2019-03-01T08:03:23.964Z,33.27
2019-03-01T08:05:52.600Z,25.50
2019-03-01T08:08:27.774Z,24.93
2019-03-01T08:10:57.298Z,30.00
2019-03-01T08:13:28.183Z,26.83
2019-03-01T08:15:57.385Z,25.63
2019-03-01T08:18:29.119Z,25.73
2019-03-01T08:20:57.817Z,24.97
2019-03-01T08:23:26.656Z,27.10
2019-03-01T08:25:58.932Z,26.80
2019-03-01T08:28:27.564Z,23.17
2019-03-01T08:30:59.173Z,25.07
2019-03-01T08:33:32.383Z,23.23
2019-03-01T08:35:58.822Z,25.53
2019-03-01T08:38:28.953Z,24.23
2019-03-01T08:41:00.244Z,30.90
2019-03-01T08:43:28.625Z,29.03
2019-03-01T08:45:57.272Z,29.13
2019-03-01T08:48:27.134Z,25.70
2019-03-01T08:50:57.363Z,26.43
2019-03-01T08:53:27.092Z,26.23
2019-03-01T08:55:55.773Z,26.67
2019-03-01T08:58:27.877Z,25.63
2019-03-01T09:00:59.918Z,23.03
2019-03-01T09:04:00.092Z,22.73
2019-03-01T09:06:29.256Z,22.73
2019-03-01T09:08:57.910Z,26.27
2019-03-01T09:11:30.499Z,21.43
2019-03-01T09:13:58.655Z,25.33
2019-03-01T09:16:27.854Z,21.27
2019-03-01T09:18:56.463Z,20.23
2019-03-01T09:21:25.208Z,19.73
2019-03-01T09:23:55.003Z,21.50
2019-03-01T09:26:28.378Z,32.33
2019-03-01T09:28:58.660Z,18.37
2019-03-01T09:31:27.292Z,19.60
2019-03-01T09:33:56.569Z,16.37
2019-03-01T09:36:27.923Z,18.57
2019-03-01T09:38:59.301Z,19.00
2019-03-01T09:41:36.627Z,18.87
2019-03-01T09:44:07.233Z,19.23
2019-03-01T09:46:36.156Z,19.23
2019-03-01T09:49:05.375Z,16.03
2019-03-01T09:51:34.181Z,17.00
2019-03-01T09:54:13.182Z,18.43
2019-03-01T09:56:33.242Z,18.03
2019-03-01T09:59:13.240Z,16.30
2019-03-01T10:01:45.180Z,19.33
2019-03-01T10:04:13.946Z,19.80
2019-03-01T10:06:52.090Z,19.70
2019-03-01T10:09:21.083Z,20.07
2019-03-01T10:11:49.796Z,19.97
2019-03-01T10:14:21.244Z,20.00
2019-03-01T10:16:57.355Z,19.40
2019-03-01T10:19:29.016Z,17.40
2019-03-01T10:21:59.595Z,22.10
2019-03-01T10:24:28.370Z,20.97
2019-03-01T10:26:57.116Z,17.67
2019-03-01T10:29:27.212Z,18.60
2019-03-01T10:31:55.899Z,17.30
2019-03-01T10:34:27.287Z,18.00
2019-03-01T10:36:56.055Z,17.23
2019-03-01T10:39:24.705Z,18.07
2019-03-01T10:41:53.403Z,17.07
2019-03-01T10:44:22.087Z,18.67
2019-03-01T10:46:50.754Z,20.03
2019-03-01T10:49:19.403Z,18.93
2019-03-01T10:51:48.281Z,18.20
2019-03-01T10:54:21.218Z,19.03
2019-03-01T10:56:49.921Z,19.67
2019-03-01T10:59:18.540Z,19.33
2019-03-01T11:01:47.173Z,18.83
2019-03-01T11:04:16.205Z,17.70
2019-03-01T11:06:45.341Z,16.83
2019-03-01T11:09:15.805Z,18.50
2019-03-01T11:11:44.602Z,18.03
2019-03-01T11:14:15.623Z,20.73
2019-03-01T11:16:44.325Z,23.23
2019-03-01T11:19:13.148Z,19.90
2019-03-01T11:21:41.797Z,20.63
2019-03-01T11:24:10.871Z,19.67
2019-03-01T11:29:29.860Z,20.83
2019-03-01T11:31:58.643Z,22.97
2019-03-01T11:34:27.277Z,21.37
2019-03-01T11:36:56.326Z,22.97
2019-03-01T11:39:27.032Z,24.97
2019-03-01T11:41:55.719Z,25.40
2019-03-01T11:44:26.059Z,22.53
2019-03-01T11:46:54.671Z,21.70
2019-03-01T11:49:23.344Z,22.60
2019-03-01T11:51:53.567Z,23.27
2019-03-01T11:54:37.810Z,22.50
2019-03-01T11:57:06.840Z,22.63
2019-03-01T11:59:35.721Z,22.83
2019-03-01T12:02:05.517Z,24.03
2019-03-01T12:04:34.107Z,23.77
2019-03-01T12:07:06.872Z,26.47
2019-03-01T12:09:33.088Z,25.00
2019-03-01T12:12:02.631Z,23.73
2019-03-01T12:14:31.257Z,27.73
2019-03-01T12:17:00.247Z,29.60
2019-03-01T12:19:29.603Z,23.53
2019-03-01T12:21:58.304Z,28.47
2019-03-01T12:24:27.252Z,25.17
2019-03-01T12:26:56.230Z,24.27
2019-03-01T12:29:25.380Z,26.53
2019-03-01T12:31:55.394Z,26.70
2019-03-01T12:34:24.253Z,28.27
2019-03-01T12:36:55.989Z,25.47
2019-03-01T12:39:25.847Z,27.77
2019-03-01T12:41:57.601Z,22.27
2019-03-01T12:44:26.194Z,24.63
2019-03-01T12:46:57.706Z,23.03
2019-03-01T12:49:29.557Z,24.33
2019-03-01T12:51:58.179Z,23.80
2019-03-01T12:54:28.256Z,24.87
2019-03-01T12:56:59.868Z,23.93
2019-03-01T12:59:30.810Z,26.13
2019-03-01T13:01:59.693Z,26.40
2019-03-01T13:04:28.320Z,24.17
2019-03-01T13:06:56.960Z,28.23
2019-03-01T13:09:28.493Z,24.33
2019-03-01T13:11:57.698Z,22.33
2019-03-01T13:14:26.678Z,27.83
2019-03-01T13:16:55.320Z,26.77
2019-03-01T13:19:26.115Z,28.40
2019-03-01T13:21:54.286Z,30.00
2019-03-01T13:24:22.924Z,32.27
2019-03-01T13:26:57.112Z,30.23
2019-03-01T13:29:25.840Z,34.57
2019-03-01T13:31:56.387Z,32.80
2019-03-01T13:34:26.982Z,37.77
2019-03-01T13:36:55.424Z,32.37
2019-03-01T13:39:24.201Z,34.57
2019-03-01T13:41:53.256Z,38.23
2019-03-01T13:44:21.897Z,36.53
2019-03-01T13:46:50.511Z,33.77
2019-03-01T13:49:20.750Z,35.20
2019-03-01T13:52:08.737Z,40.47
2019-03-01T13:54:37.734Z,43.17
2019-03-01T13:57:08.402Z,43.87
2019-03-01T13:59:37.554Z,42.30
2019-03-01T14:02:11.752Z,43.23
2019-03-01T14:04:47.618Z,49.30
2019-03-01T14:07:18.846Z,50.07
2019-03-01T14:09:50.579Z,48.37
2019-03-01T14:12:20.870Z,49.83
2019-03-01T14:15:02.699Z,48.50
2019-03-01T14:17:30.856Z,50.77
2019-03-01T14:19:59.542Z,51.93
2019-03-01T14:22:28.713Z,51.03
2019-03-01T14:24:57.751Z,50.47
2019-03-01T14:27:29.565Z,54.83
2019-03-01T14:30:00.237Z,49.07
2019-03-01T14:32:29.244Z,53.13
2019-03-01T14:34:58.269Z,56.97
2019-03-01T14:37:27.947Z,52.47
2019-03-01T14:39:56.546Z,56.97
2019-03-01T14:42:25.367Z,53.50
2019-03-01T14:44:58.689Z,52.63
2019-03-01T14:47:32.717Z,50.87
2019-03-01T14:50:03.095Z,50.80
2019-03-01T14:52:34.877Z,60.33
2019-03-01T14:55:10.577Z,53.97
2019-03-01T14:57:43.077Z,53.03
2019-03-01T15:00:20.554Z,52.07
2019-03-01T15:02:58.307Z,48.50
2019-03-01T15:05:29.058Z,50.13
2019-03-01T15:08:03.087Z,52.53
2019-03-01T15:10:36.369Z,56.40
2019-03-01T15:13:07.698Z,49.87
2019-03-01T15:15:36.633Z,53.30
2019-03-01T15:18:08.166Z,51.90
2019-03-01T15:20:42.519Z,56.50
2019-03-01T15:23:11.470Z,61.83
2019-03-01T15:25:48.749Z,57.10
2019-03-01T15:28:17.852Z,57.77
2019-03-01T15:30:47.492Z,66.33
2019-03-01T15:33:19.220Z,59.37
2019-03-01T15:35:56.831Z,63.77
2019-03-01T15:38:27.745Z,67.37
2019-03-01T15:40:59.287Z,63.17
2019-03-01T15:43:30.022Z,66.13
2019-03-01T15:45:58.795Z,70.17
2019-03-01T15:48:27.448Z,66.20
2019-03-01T15:50:59.149Z,69.20
2019-03-01T15:53:26.899Z,61.03
2019-03-01T15:55:55.533Z,65.97
2019-03-01T15:58:24.414Z,65.67
2019-03-01T16:00:53.037Z,61.80
2019-03-01T16:03:26.576Z,62.30
2019-03-01T16:05:55.256Z,62.53
2019-03-01T16:08:25.637Z,53.87
2019-03-01T16:10:54.286Z,52.20
2019-03-01T16:13:23.147Z,49.57
2019-03-01T16:15:55.220Z,49.27
2019-03-01T16:18:25.869Z,48.80
2019-03-01T16:21:01.994Z,52.40
2019-03-01T16:23:31.405Z,52.20
2019-03-01T16:26:00.303Z,53.50
2019-03-01T16:28:39.678Z,51.97
2019-03-01T16:31:10.366Z,46.40
2019-03-01T16:33:40.186Z,49.63
2019-03-01T16:36:10.494Z,51.03
2019-03-01T16:38:41.165Z,45.97
2019-03-01T16:41:12.544Z,50.07
2019-03-01T16:43:41.178Z,41.73
2019-03-01T16:46:09.920Z,44.77
2019-03-01T16:48:39.112Z,37.37
2019-03-01T16:51:07.925Z,45.87
2019-03-01T16:53:40.169Z,42.03
2019-03-01T16:56:07.156Z,39.80
2019-03-01T16:58:35.812Z,40.03
2019-03-01T17:01:05.174Z,37.10
2019-03-01T17:03:33.943Z,37.00
2019-03-01T17:06:06.627Z,38.23
2019-03-01T17:08:36.347Z,39.07
2019-03-01T17:11:08.815Z,39.20
2019-03-01T17:13:37.448Z,37.70
2019-03-01T17:16:06.355Z,41.87
2019-03-01T17:18:38.102Z,36.13
2019-03-01T17:21:08.667Z,40.70
2019-03-01T17:23:39.242Z,40.53
2019-03-01T17:26:08.858Z,44.53
2019-03-01T17:28:37.857Z,46.20
2019-03-01T17:31:13.632Z,42.83
2019-03-01T17:33:48.836Z,41.27
2019-03-01T17:36:17.047Z,41.13
2019-03-01T17:38:46.660Z,40.60
2019-03-01T17:41:18.234Z,42.87
2019-03-01T17:43:49.596Z,40.10
2019-03-01T17:46:18.240Z,42.37
2019-03-01T17:48:50.862Z,44.03
2019-03-01T17:51:21.021Z,36.70
2019-03-01T17:53:52.646Z,40.80
2019-03-01T17:56:23.068Z,38.17
2019-03-01T17:58:56.085Z,36.20
2019-03-01T18:01:27.816Z,36.00
2019-03-01T18:03:58.085Z,33.87
2019-03-01T18:06:37.803Z,28.73
2019-03-01T18:09:09.829Z,35.13
2019-03-01T18:11:40.691Z,28.40
2019-03-01T18:14:33.758Z,25.80
2019-03-01T18:17:04.839Z,31.93
2019-03-01T18:19:36.384Z,26.47
2019-03-01T18:22:05.288Z,31.23
2019-03-01T18:24:37.159Z,29.63
2019-03-01T18:27:12.111Z,31.43
2019-03-01T18:29:42.387Z,33.20
2019-03-01T18:32:11.190Z,30.33
2019-03-01T18:34:40.850Z,27.37
2019-03-01T18:37:19.566Z,30.07
2019-03-01T18:39:43.441Z,33.27
2019-03-01T18:42:13.244Z,32.87
2019-03-01T18:44:42.041Z,36.53
2019-03-01T18:47:13.851Z,39.90
2019-03-01T18:49:42.831Z,38.43
2019-03-01T18:52:14.473Z,34.67
2019-03-01T18:54:44.534Z,36.30
2019-03-01T18:57:13.806Z,29.97
2019-03-01T18:59:42.429Z,33.37
2019-03-01T19:02:14.261Z,34.03
2019-03-01T19:04:45.911Z,35.33
2019-03-01T19:07:14.467Z,35.57
2019-03-01T19:09:45.109Z,36.50
2019-03-01T19:12:17.419Z,32.20
2019-03-01T19:14:49.067Z,38.60
2019-03-01T19:17:25.028Z,30.10
2019-03-01T19:19:53.876Z,26.43
2019-03-01T19:22:29.377Z,34.70
2019-03-01T19:24:58.104Z,30.27
2019-03-01T19:27:32.267Z,27.53
2019-03-01T19:30:13.556Z,28.10
2019-03-01T19:32:42.995Z,25.87
2019-03-01T19:35:17.124Z,25.50
2019-03-01T19:37:49.333Z,28.00
2019-03-01T19:40:21.310Z,25.07
2019-03-01T19:42:53.992Z,22.63
2019-03-01T19:45:23.378Z,26.67
2019-03-01T19:47:52.206Z,26.97
2019-03-01T19:50:27.855Z,22.90
2019-03-01T19:52:56.919Z,29.43
2019-03-01T19:55:25.937Z,27.20
2019-03-01T19:58:01.741Z,26.30
2019-03-01T20:00:33.687Z,25.80
2019-03-01T20:03:06.631Z,27.47
2019-03-01T20:05:39.230Z,29.53
2019-03-01T20:08:07.978Z,24.43
2019-03-01T20:10:39.817Z,21.67
2019-03-01T20:13:08.564Z,22.80
2019-03-01T20:15:37.284Z,23.23
2019-03-01T20:18:09.834Z,25.17
2019-03-01T20:20:44.048Z,25.90
2019-03-01T20:23:14.057Z,24.27
2019-03-01T20:25:54.816Z,22.80
2019-03-01T20:28:32.280Z,22.23
2019-03-01T20:31:06.930Z,23.60
2019-03-01T20:33:40.486Z,22.93
2019-03-01T20:36:13.727Z,24.43
2019-03-01T20:38:45.224Z,24.10
2019-03-01T20:41:15.015Z,26.33
2019-03-01T20:43:43.951Z,23.53
2019-03-01T20:46:17.302Z,21.70
2019-03-01T20:48:47.697Z,22.47
2019-03-01T20:51:16.500Z,20.20
2019-03-01T20:53:45.745Z,21.97
2019-03-01T20:56:16.994Z,20.90
2019-03-01T20:58:47.797Z,22.20
2019-03-01T21:01:19.383Z,18.70
2019-03-01T21:03:47.320Z,22.00
2019-03-01T21:06:21.234Z,20.97
2019-03-01T21:08:53.012Z,16.77
2019-03-01T21:11:21.743Z,17.57
2019-03-01T21:13:52.251Z,20.37
2019-03-01T21:16:20.959Z,19.80
2019-03-01T21:18:52.365Z,21.27
2019-03-01T21:21:25.515Z,19.10
2019-03-01T21:23:53.250Z,21.53
2019-03-01T21:26:24.093Z,21.87
2019-03-01T21:28:55.939Z,19.93
2019-03-01T21:31:24.651Z,20.20
2019-03-01T21:33:59.417Z,17.73
2019-03-01T21:36:28.951Z,19.30
2019-03-01T21:38:57.668Z,17.10
2019-03-01T21:41:29.245Z,18.97
2019-03-01T21:44:10.224Z,17.03
2019-03-01T21:46:36.258Z,17.73
2019-03-01T21:49:05.026Z,18.67
2019-03-01T21:51:34.949Z,14.77
2019-03-01T21:54:05.453Z,16.10
2019-03-01T21:56:34.202Z,15.30
2019-03-01T21:59:05.153Z,21.23
2019-03-01T22:01:37.614Z,19.40
2019-03-01T22:04:10.075Z,17.60
2019-03-01T22:06:39.293Z,21.03
2019-03-01T22:09:09.774Z,20.13
2019-03-01T22:11:38.455Z,16.67
2019-03-01T22:14:14.153Z,12.90
2019-03-01T22:16:41.775Z,18.60
2019-03-01T22:19:14.867Z,18.70
2019-03-01T22:21:43.430Z,16.30
2019-03-01T22:24:12.280Z,16.33
2019-03-01T22:26:40.773Z,18.07
2019-03-01T22:29:12.093Z,16.77
2019-03-01T22:31:39.820Z,22.10
2019-03-01T22:34:08.435Z,23.93
2019-03-01T22:36:39.443Z,17.17
2019-03-01T22:39:17.580Z,19.70
2019-03-01T22:41:46.240Z,19.10
2019-03-01T22:44:15.236Z,16.83
2019-03-01T22:46:43.869Z,16.70
2019-03-01T22:49:23.684Z,19.17
2019-03-01T22:51:52.907Z,21.50
2019-03-01T22:54:22.630Z,16.97
2019-03-01T22:56:51.210Z,18.23
2019-03-01T22:59:26.057Z,18.47
2019-03-01T23:01:55.338Z,19.07
2019-03-01T23:04:29.380Z,20.90
2019-03-01T23:06:57.326Z,20.33
2019-03-01T23:09:29.008Z,21.77
2019-03-01T23:11:57.726Z,22.00
2019-03-01T23:14:27.393Z,23.67
2019-03-01T23:16:57.382Z,21.37
2019-03-01T23:19:27.770Z,26.83
2019-03-01T23:21:56.461Z,20.47
2019-03-01T23:24:25.097Z,25.03
2019-03-01T23:26:58.691Z,18.60
2019-03-01T23:29:29.522Z,21.73
2019-03-01T23:31:58.103Z,21.37
2019-03-01T23:34:27.028Z,24.80
2019-03-01T23:36:55.629Z,19.63
2019-03-01T23:39:24.610Z,23.60
2019-03-01T23:41:57.254Z,25.50
2019-03-01T23:44:26.003Z,18.90
2019-03-01T23:46:54.895Z,25.87
2019-03-01T23:49:24.058Z,22.70
2019-03-01T23:51:53.134Z,20.33
2019-03-01T23:54:27.528Z,21.27
2019-03-01T23:56:56.182Z,20.27
2019-03-01T23:59:26.684Z,18.17
